Other Surface Observations
Issued by NWS Great Falls, MT

Home | Current Version | Previous Version | Text Only | Print | Product List | Glossary On
Versions: 1 2 3 4 5 6 7 8 9 10 11 12 13 14 15 16 17 18 19 20 21 22 23 24 25 26 27 28 29 30 31 32 33 34 35 36 37 38 39 40 41 42 43 44 45 46 47 48 49 50
398
SXUS55 KTFX 031908
OSOTFX

AREA AWOS OBSERVATIONS
NATIONAL WEATHER SERVICE GREAT FALLS MT
1207 PM MST Sat Dec 03 2016

METAR K6S8 031855Z AUTO 24020KT 40SM 07/M09 A2989 RMK A01 T00661088
METAR K6S8 031755Z AUTO 21012KT 40SM 06/M09 A2990 RMK A01 T00551094
METAR K7S0 031855Z AUTO 12000KT 40SM 03/M01 A3010 RMK A01 T00271005
METAR K7S1 031855Z AUTO 18018KT 40SM 04/M09 A3000 RMK A01 T00381088
METAR K9S2 031855Z AUTO 16007KT 3SM 01/M03 A2970 RMK A01 T00051027
METAR K9S5 031855Z AUTO 21006KT 40SM 05/05 A2998 RMK A01 T00500050
METAR KRPX 031855Z AUTO 24023KT 40SM 07/M08 A2977 RMK A01 T00721083
METAR KS01 031755Z AUTO 25023KT 40SM 05/M03 A2987 RMK A01 T00501027
METAR KS34 031855Z AUTO 14000KT 25SM 02/00 A3008 RMK A01 T00220000
METAR KTHM 031755Z AUTO 22005KT 40SM 03/01 A3013 RMK A01 T00270005



USA.gov is the U.S. government's official web portal to all federal, state and local government web resources and services.